Puckett, Mississippi
Current Conditions -  °F | °C
As of 9:54 AM on Sunday 25 Jan 2015 (Local Time) from KJAN Reporting Station
Clear Clear  
Wind Chill: 52°   Ceiling: Unl
Heat Index: 52°   Visibility: 10mi
Dew Point: 39°   Wind: 10mph
Humidity: 61%   Direction: 210°SSW
Pressure: 29.91"   Gusts: NA
Location:  32.08°N, 89.78°W
Report Text: KJAN 251554Z 21009KT 10SM CLR 11/04 A2991 RMK AO2 SLP127 T01110039
Loading
Personal Weather Stations






























Interactive Weather Map New forecast layout! Learn more

10-Day Weather Forecast

Advertisements
Track Severe Weather on mobile